sensor_id;sensor_type;location;lat;lon;timestamp;temperature;humidity
52769;DHT22;40471;44.534;18.644;2023-07-02T00:01:44;21.20;99.90
52769;DHT22;40471;44.534;18.644;2023-07-02T00:04:10;21.30;99.90
52769;DHT22;40471;44.534;18.644;2023-07-02T00:06:39;21.20;99.90
52769;DHT22;40471;44.534;18.644;2023-07-02T00:09:06;21.20;99.90
52769;DHT22;40471;44.534;18.644;2023-07-02T00:11:31;21.20;99.90
52769;DHT22;40471;44.534;18.644;2023-07-02T00:13:57;21.20;99.90
52769;DHT22;40471;44.534;18.644;2023-07-02T00:16:22;21.20;99.90
52769;DHT22;40471;44.534;18.644;2023-07-02T00:18:48;21.20;99.90
52769;DHT22;40471;44.534;18.644;2023-07-02T00:21:18;21.20;99.90
52769;DHT22;40471;44.534;18.644;2023-07-02T00:23:44;21.30;99.90
52769;DHT22;40471;44.534;18.644;2023-07-02T00:26:10;21.30;99.90
52769;DHT22;40471;44.534;18.644;2023-07-02T00:28:35;21.30;99.90
52769;DHT22;40471;44.534;18.644;2023-07-02T00:31:01;21.30;99.90
52769;DHT22;40471;44.534;18.644;2023-07-02T00:33:27;21.30;99.90
52769;DHT22;40471;44.534;18.644;2023-07-02T00:35:54;21.10;99.90
52769;DHT22;40471;44.534;18.644;2023-07-02T00:38:20;20.90;99.90
52769;DHT22;40471;44.534;18.644;2023-07-02T00:40:45;20.70;99.90
52769;DHT22;40471;44.534;18.644;2023-07-02T00:43:11;20.60;99.90
52769;DHT22;40471;44.534;18.644;2023-07-02T00:45:38;20.60;99.90
52769;DHT22;40471;44.534;18.644;2023-07-02T00:48:05;20.60;99.90
52769;DHT22;40471;44.534;18.644;2023-07-02T00:50:31;20.70;99.90
52769;DHT22;40471;44.534;18.644;2023-07-02T00:52:57;20.70;99.90
52769;DHT22;40471;44.534;18.644;2023-07-02T00:55:22;20.70;99.90
52769;DHT22;40471;44.534;18.644;2023-07-02T00:57:48;20.70;99.90
52769;DHT22;40471;44.534;18.644;2023-07-02T01:00:14;20.80;99.90
52769;DHT22;40471;44.534;18.644;2023-07-02T01:02:40;20.80;99.90
52769;DHT22;40471;44.534;18.644;2023-07-02T01:05:18;20.80;99.90
52769;DHT22;40471;44.534;18.644;2023-07-02T01:07:46;20.80;99.90
52769;DHT22;40471;44.534;18.644;2023-07-02T01:10:12;20.80;99.90
52769;DHT22;40471;44.534;18.644;2023-07-02T01:12:38;21.20;99.90
52769;DHT22;40471;44.534;18.644;2023-07-02T01:15:04;20.80;99.90
52769;DHT22;40471;44.534;18.644;2023-07-02T01:17:31;20.90;99.90
52769;DHT22;40471;44.534;18.644;2023-07-02T01:20:03;20.90;99.90
52769;DHT22;40471;44.534;18.644;2023-07-02T01:22:29;20.90;99.90
52769;DHT22;40471;44.534;18.644;2023-07-02T01:24:55;20.90;99.90
52769;DHT22;40471;44.534;18.644;2023-07-02T01:27:21;20.80;99.90
52769;DHT22;40471;44.534;18.644;2023-07-02T01:29:50;20.80;99.90
52769;DHT22;40471;44.534;18.644;2023-07-02T01:32:16;20.80;99.90
52769;DHT22;40471;44.534;18.644;2023-07-02T01:34:42;20.80;99.90
52769;DHT22;40471;44.534;18.644;2023-07-02T01:37:14;20.60;99.90
52769;DHT22;40471;44.534;18.644;2023-07-02T01:39:39;20.50;99.90
52769;DHT22;40471;44.534;18.644;2023-07-02T01:44:34;20.50;99.90
52769;DHT22;40471;44.534;18.644;2023-07-02T01:47:00;20.50;99.90
52769;DHT22;40471;44.534;18.644;2023-07-02T01:49:25;20.50;99.90
52769;DHT22;40471;44.534;18.644;2023-07-02T01:51:51;20.50;99.90
52769;DHT22;40471;44.534;18.644;2023-07-02T01:54:17;20.50;99.90
52769;DHT22;40471;44.534;18.644;2023-07-02T01:56:43;20.40;99.90
52769;DHT22;40471;44.534;18.644;2023-07-02T01:59:09;20.40;99.90
52769;DHT22;40471;44.534;18.644;2023-07-02T02:01:34;20.40;99.90
52769;DHT22;40471;44.534;18.644;2023-07-02T02:04:00;20.40;99.90
52769;DHT22;40471;44.534;18.644;2023-07-02T02:06:26;20.30;99.90
52769;DHT22;40471;44.534;18.644;2023-07-02T02:08:51;20.20;99.90
52769;DHT22;40471;44.534;18.644;2023-07-02T02:11:17;20.20;99.90
52769;DHT22;40471;44.534;18.644;2023-07-02T02:13:42;20.10;99.90
52769;DHT22;40471;44.534;18.644;2023-07-02T02:16:08;20.20;99.90
52769;DHT22;40471;44.534;18.644;2023-07-02T02:18:34;20.20;99.90
52769;DHT22;40471;44.534;18.644;2023-07-02T02:21:00;20.20;99.90
52769;DHT22;40471;44.534;18.644;2023-07-02T02:23:25;20.30;99.90
52769;DHT22;40471;44.534;18.644;2023-07-02T02:25:51;20.30;99.90
52769;DHT22;40471;44.534;18.644;2023-07-02T02:28:17;20.40;99.90
52769;DHT22;40471;44.534;18.644;2023-07-02T02:30:42;20.50;99.90
52769;DHT22;40471;44.534;18.644;2023-07-02T02:33:08;20.60;99.90
52769;DHT22;40471;44.534;18.644;2023-07-02T02:35:33;20.60;99.90
52769;DHT22;40471;44.534;18.644;2023-07-02T02:38:02;20.70;99.90
52769;DHT22;40471;44.534;18.644;2023-07-02T02:40:27;20.70;99.90
52769;DHT22;40471;44.534;18.644;2023-07-02T02:42:53;20.60;99.90
52769;DHT22;40471;44.534;18.644;2023-07-02T02:45:19;20.60;99.90
52769;DHT22;40471;44.534;18.644;2023-07-02T02:47:47;20.60;99.90
52769;DHT22;40471;44.534;18.644;2023-07-02T02:50:13;20.50;99.90
52769;DHT22;40471;44.534;18.644;2023-07-02T02:52:39;20.50;99.90
52769;DHT22;40471;44.534;18.644;2023-07-02T02:55:05;20.60;99.90
52769;DHT22;40471;44.534;18.644;2023-07-02T02:57:31;20.60;99.90
52769;DHT22;40471;44.534;18.644;2023-07-02T02:59:57;20.50;99.90
52769;DHT22;40471;44.534;18.644;2023-07-02T03:02:22;20.50;99.90
52769;DHT22;40471;44.534;18.644;2023-07-02T03:04:48;20.50;99.90
52769;DHT22;40471;44.534;18.644;2023-07-02T03:07:15;20.50;99.90
52769;DHT22;40471;44.534;18.644;2023-07-02T03:09:40;20.50;99.90
52769;DHT22;40471;44.534;18.644;2023-07-02T03:12:06;20.50;99.90
52769;DHT22;40471;44.534;18.644;2023-07-02T03:14:32;20.50;99.90
52769;DHT22;40471;44.534;18.644;2023-07-02T03:16:58;20.50;99.90
52769;DHT22;40471;44.534;18.644;2023-07-02T03:19:24;20.50;99.90
52769;DHT22;40471;44.534;18.644;2023-07-02T03:21:49;20.50;99.90
52769;DHT22;40471;44.534;18.644;2023-07-02T03:24:15;20.50;99.90
52769;DHT22;40471;44.534;18.644;2023-07-02T03:26:42;20.40;99.90
52769;DHT22;40471;44.534;18.644;2023-07-02T03:29:07;20.30;99.90
52769;DHT22;40471;44.534;18.644;2023-07-02T03:31:33;20.30;99.90
52769;DHT22;40471;44.534;18.644;2023-07-02T03:34:01;20.40;99.90
52769;DHT22;40471;44.534;18.644;2023-07-02T03:36:27;20.40;99.90
52769;DHT22;40471;44.534;18.644;2023-07-02T03:38:52;20.40;99.90
52769;DHT22;40471;44.534;18.644;2023-07-02T03:41:18;20.30;99.90
52769;DHT22;40471;44.534;18.644;2023-07-02T03:43:44;20.30;99.90
52769;DHT22;40471;44.534;18.644;2023-07-02T03:46:09;20.30;99.90
52769;DHT22;40471;44.534;18.644;2023-07-02T03:48:35;20.40;99.90
52769;DHT22;40471;44.534;18.644;2023-07-02T03:51:01;20.40;99.90
52769;DHT22;40471;44.534;18.644;2023-07-02T03:53:26;20.50;99.90
52769;DHT22;40471;44.534;18.644;2023-07-02T03:55:52;20.50;99.90
52769;DHT22;40471;44.534;18.644;2023-07-02T03:58:18;20.60;99.90
52769;DHT22;40471;44.534;18.644;2023-07-02T04:00:43;20.60;99.90
52769;DHT22;40471;44.534;18.644;2023-07-02T04:03:09;20.70;99.90
52769;DHT22;40471;44.534;18.644;2023-07-02T04:05:35;20.80;99.90
52769;DHT22;40471;44.534;18.644;2023-07-02T04:08:00;20.90;99.90
52769;DHT22;40471;44.534;18.644;2023-07-02T04:10:26;21.00;99.90
52769;DHT22;40471;44.534;18.644;2023-07-02T04:12:51;21.00;99.90
52769;DHT22;40471;44.534;18.644;2023-07-02T04:15:17;20.90;99.90
52769;DHT22;40471;44.534;18.644;2023-07-02T04:17:42;20.90;99.90
52769;DHT22;40471;44.534;18.644;2023-07-02T04:20:08;21.00;99.90
52769;DHT22;40471;44.534;18.644;2023-07-02T04:22:35;21.10;99.90
52769;DHT22;40471;44.534;18.644;2023-07-02T04:25:00;21.10;99.90
52769;DHT22;40471;44.534;18.644;2023-07-02T04:27:27;21.30;99.90
52769;DHT22;40471;44.534;18.644;2023-07-02T04:29:53;21.50;99.90
52769;DHT22;40471;44.534;18.644;2023-07-02T04:32:18;21.70;99.90
52769;DHT22;40471;44.534;18.644;2023-07-02T04:34:44;21.90;99.90
52769;DHT22;40471;44.534;18.644;2023-07-02T04:37:09;22.00;99.90
52769;DHT22;40471;44.534;18.644;2023-07-02T04:39:35;22.10;99.90
52769;DHT22;40471;44.534;18.644;2023-07-02T04:42:01;22.30;99.90
52769;DHT22;40471;44.534;18.644;2023-07-02T04:44:26;22.50;99.90
52769;DHT22;40471;44.534;18.644;2023-07-02T04:46:58;22.50;99.90
52769;DHT22;40471;44.534;18.644;2023-07-02T04:49:24;22.50;99.90
52769;DHT22;40471;44.534;18.644;2023-07-02T04:51:50;22.50;99.90
52769;DHT22;40471;44.534;18.644;2023-07-02T04:54:16;22.60;99.90
52769;DHT22;40471;44.534;18.644;2023-07-02T04:56:41;22.70;99.90
52769;DHT22;40471;44.534;18.644;2023-07-02T04:59:07;22.60;99.90
52769;DHT22;40471;44.534;18.644;2023-07-02T05:01:33;22.50;99.90
52769;DHT22;40471;44.534;18.644;2023-07-02T05:03:58;22.60;99.90
52769;DHT22;40471;44.534;18.644;2023-07-02T05:06:24;22.60;99.90
52769;DHT22;40471;44.534;18.644;2023-07-02T05:08:50;22.70;99.90
52769;DHT22;40471;44.534;18.644;2023-07-02T05:11:15;22.90;99.90
52769;DHT22;40471;44.534;18.644;2023-07-02T05:13:41;23.00;99.90
52769;DHT22;40471;44.534;18.644;2023-07-02T05:16:06;23.00;99.90
52769;DHT22;40471;44.534;18.644;2023-07-02T05:18:32;23.10;99.90
52769;DHT22;40471;44.534;18.644;2023-07-02T05:20:57;23.20;99.90
52769;DHT22;40471;44.534;18.644;2023-07-02T05:23:23;23.20;99.90
52769;DHT22;40471;44.534;18.644;2023-07-02T05:25:48;23.20;99.90
52769;DHT22;40471;44.534;18.644;2023-07-02T05:28:14;23.40;99.90
52769;DHT22;40471;44.534;18.644;2023-07-02T05:30:40;23.60;99.90
52769;DHT22;40471;44.534;18.644;2023-07-02T05:33:05;23.60;99.90
52769;DHT22;40471;44.534;18.644;2023-07-02T05:35:31;23.70;99.90
52769;DHT22;40471;44.534;18.644;2023-07-02T05:37:56;23.80;99.90
52769;DHT22;40471;44.534;18.644;2023-07-02T05:40:22;23.80;99.90
52769;DHT22;40471;44.534;18.644;2023-07-02T05:42:48;23.80;99.90
52769;DHT22;40471;44.534;18.644;2023-07-02T05:45:13;23.80;99.90
52769;DHT22;40471;44.534;18.644;2023-07-02T05:47:39;23.90;99.90
52769;DHT22;40471;44.534;18.644;2023-07-02T05:50:05;24.70;99.90
52769;DHT22;40471;44.534;18.644;2023-07-02T05:52:31;27.40;99.90
52769;DHT22;40471;44.534;18.644;2023-07-02T05:54:56;30.10;99.60
52769;DHT22;40471;44.534;18.644;2023-07-02T05:57:22;31.90;92.40
52769;DHT22;40471;44.534;18.644;2023-07-02T05:59:48;33.30;87.80
52769;DHT22;40471;44.534;18.644;2023-07-02T06:02:13;34.40;80.90
52769;DHT22;40471;44.534;18.644;2023-07-02T06:04:39;33.60;80.00
52769;DHT22;40471;44.534;18.644;2023-07-02T06:07:04;33.00;80.50
52769;DHT22;40471;44.534;18.644;2023-07-02T06:09:30;31.60;81.70
52769;DHT22;40471;44.534;18.644;2023-07-02T06:11:56;30.80;84.80
52769;DHT22;40471;44.534;18.644;2023-07-02T06:14:22;32.50;83.00
52769;DHT22;40471;44.534;18.644;2023-07-02T06:16:51;34.50;79.20
52769;DHT22;40471;44.534;18.644;2023-07-02T06:19:17;36.40;74.30
52769;DHT22;40471;44.534;18.644;2023-07-02T06:21:43;37.80;71.10
52769;DHT22;40471;44.534;18.644;2023-07-02T06:24:08;38.10;68.80
52769;DHT22;40471;44.534;18.644;2023-07-02T06:26:34;37.30;67.40
52769;DHT22;40471;44.534;18.644;2023-07-02T06:28:59;35.80;69.40
52769;DHT22;40471;44.534;18.644;2023-07-02T06:31:25;35.00;70.30
52769;DHT22;40471;44.534;18.644;2023-07-02T06:33:51;33.80;73.40
52769;DHT22;40471;44.534;18.644;2023-07-02T06:36:16;33.20;74.80
52769;DHT22;40471;44.534;18.644;2023-07-02T06:38:43;32.40;75.20
52769;DHT22;40471;44.534;18.644;2023-07-02T06:41:08;31.30;77.90
52769;DHT22;40471;44.534;18.644;2023-07-02T06:43:34;30.10;80.80
52769;DHT22;40471;44.534;18.644;2023-07-02T06:46:00;29.30;84.00
52769;DHT22;40471;44.534;18.644;2023-07-02T06:48:25;28.90;86.70
52769;DHT22;40471;44.534;18.644;2023-07-02T06:50:51;28.50;90.10
52769;DHT22;40471;44.534;18.644;2023-07-02T06:53:17;28.40;91.30
52769;DHT22;40471;44.534;18.644;2023-07-02T06:55:42;28.10;93.70
52769;DHT22;40471;44.534;18.644;2023-07-02T06:58:08;27.80;95.80
52769;DHT22;40471;44.534;18.644;2023-07-02T07:00:33;27.60;98.50
52769;DHT22;40471;44.534;18.644;2023-07-02T07:03:02;27.20;99.90
52769;DHT22;40471;44.534;18.644;2023-07-02T07:05:29;27.10;99.90
52769;DHT22;40471;44.534;18.644;2023-07-02T07:07:55;26.90;99.90
52769;DHT22;40471;44.534;18.644;2023-07-02T07:10:20;26.80;99.90
52769;DHT22;40471;44.534;18.644;2023-07-02T07:12:46;26.90;99.90
52769;DHT22;40471;44.534;18.644;2023-07-02T07:15:11;27.00;99.90
52769;DHT22;40471;44.534;18.644;2023-07-02T07:17:37;27.20;99.90
52769;DHT22;40471;44.534;18.644;2023-07-02T07:20:03;27.40;99.90
52769;DHT22;40471;44.534;18.644;2023-07-02T07:22:30;27.80;99.90
52769;DHT22;40471;44.534;18.644;2023-07-02T07:24:56;28.30;99.90
52769;DHT22;40471;44.534;18.644;2023-07-02T07:27:21;28.30;99.90
52769;DHT22;40471;44.534;18.644;2023-07-02T07:29:47;28.70;99.90
52769;DHT22;40471;44.534;18.644;2023-07-02T07:32:12;29.00;99.00
52769;DHT22;40471;44.534;18.644;2023-07-02T07:34:38;29.10;97.40
52769;DHT22;40471;44.534;18.644;2023-07-02T07:37:04;29.10;97.10
52769;DHT22;40471;44.534;18.644;2023-07-02T07:39:30;28.90;96.70
52769;DHT22;40471;44.534;18.644;2023-07-02T07:41:55;28.40;97.90
52769;DHT22;40471;44.534;18.644;2023-07-02T07:44:21;28.10;99.90
52769;DHT22;40471;44.534;18.644;2023-07-02T07:46:46;28.10;99.90
52769;DHT22;40471;44.534;18.644;2023-07-02T07:49:13;28.00;99.90
52769;DHT22;40471;44.534;18.644;2023-07-02T07:51:38;27.80;99.90
52769;DHT22;40471;44.534;18.644;2023-07-02T07:54:04;27.70;99.90
52769;DHT22;40471;44.534;18.644;2023-07-02T07:56:29;28.80;99.90
52769;DHT22;40471;44.534;18.644;2023-07-02T07:58:55;29.50;99.30
52769;DHT22;40471;44.534;18.644;2023-07-02T08:01:21;29.90;95.70
52769;DHT22;40471;44.534;18.644;2023-07-02T08:03:46;29.70;95.30
52769;DHT22;40471;44.534;18.644;2023-07-02T08:06:12;29.40;95.50
52769;DHT22;40471;44.534;18.644;2023-07-02T08:08:37;29.10;96.60
52769;DHT22;40471;44.534;18.644;2023-07-02T08:11:03;30.00;96.70
52769;DHT22;40471;44.534;18.644;2023-07-02T08:13:32;29.90;94.60
52769;DHT22;40471;44.534;18.644;2023-07-02T08:15:57;29.90;94.70
52769;DHT22;40471;44.534;18.644;2023-07-02T08:18:23;29.90;95.00
52769;DHT22;40471;44.534;18.644;2023-07-02T08:20:48;29.70;94.90
52769;DHT22;40471;44.534;18.644;2023-07-02T08:23:14;29.40;95.50
52769;DHT22;40471;44.534;18.644;2023-07-02T08:25:40;29.50;96.10
52769;DHT22;40471;44.534;18.644;2023-07-02T08:28:05;30.10;95.20
52769;DHT22;40471;44.534;18.644;2023-07-02T08:30:31;30.50;94.00
52769;DHT22;40471;44.534;18.644;2023-07-02T08:32:56;31.10;92.80
52769;DHT22;40471;44.534;18.644;2023-07-02T08:35:22;32.60;91.30
52769;DHT22;40471;44.534;18.644;2023-07-02T08:37:47;32.40;90.00
52769;DHT22;40471;44.534;18.644;2023-07-02T08:40:17;32.90;87.10
52769;DHT22;40471;44.534;18.644;2023-07-02T08:42:46;32.20;86.80
52769;DHT22;40471;44.534;18.644;2023-07-02T08:45:15;32.10;89.20
52769;DHT22;40471;44.534;18.644;2023-07-02T08:47:42;32.60;87.00
52769;DHT22;40471;44.534;18.644;2023-07-02T08:50:08;33.80;86.80
52769;DHT22;40471;44.534;18.644;2023-07-02T08:52:34;34.60;83.10
52769;DHT22;40471;44.534;18.644;2023-07-02T08:54:59;33.60;81.20
52769;DHT22;40471;44.534;18.644;2023-07-02T08:57:25;32.90;83.50
52769;DHT22;40471;44.534;18.644;2023-07-02T08:59:51;33.20;84.20
52769;DHT22;40471;44.534;18.644;2023-07-02T09:02:17;33.10;82.00
52769;DHT22;40471;44.534;18.644;2023-07-02T09:04:42;33.70;82.60
52769;DHT22;40471;44.534;18.644;2023-07-02T09:07:09;34.10;83.20
52769;DHT22;40471;44.534;18.644;2023-07-02T09:09:45;33.70;80.40
52769;DHT22;40471;44.534;18.644;2023-07-02T09:12:25;32.90;82.30
52769;DHT22;40471;44.534;18.644;2023-07-02T09:14:56;32.50;83.20
52769;DHT22;40471;44.534;18.644;2023-07-02T09:17:26;32.10;83.30
52769;DHT22;40471;44.534;18.644;2023-07-02T09:19:52;31.90;83.50
52769;DHT22;40471;44.534;18.644;2023-07-02T09:22:17;31.70;85.00
52769;DHT22;40471;44.534;18.644;2023-07-02T09:24:50;31.60;84.90
52769;DHT22;40471;44.534;18.644;2023-07-02T09:27:16;31.30;85.10
52769;DHT22;40471;44.534;18.644;2023-07-02T09:29:42;31.10;86.30
52769;DHT22;40471;44.534;18.644;2023-07-02T09:32:07;31.00;87.50
52769;DHT22;40471;44.534;18.644;2023-07-02T09:34:33;31.10;87.00
52769;DHT22;40471;44.534;18.644;2023-07-02T09:36:59;31.00;86.30
52769;DHT22;40471;44.534;18.644;2023-07-02T09:39:26;31.10;87.00
52769;DHT22;40471;44.534;18.644;2023-07-02T09:41:53;31.20;87.50
52769;DHT22;40471;44.534;18.644;2023-07-02T09:44:19;31.20;86.50
52769;DHT22;40471;44.534;18.644;2023-07-02T09:46:46;31.40;85.90
52769;DHT22;40471;44.534;18.644;2023-07-02T09:49:14;31.50;86.80
52769;DHT22;40471;44.534;18.644;2023-07-02T09:51:40;31.20;87.10
52769;DHT22;40471;44.534;18.644;2023-07-02T09:54:06;31.40;86.60
52769;DHT22;40471;44.534;18.644;2023-07-02T09:56:31;31.40;87.00
52769;DHT22;40471;44.534;18.644;2023-07-02T09:58:57;31.70;84.90
52769;DHT22;40471;44.534;18.644;2023-07-02T10:01:23;31.90;85.70
52769;DHT22;40471;44.534;18.644;2023-07-02T10:03:48;32.30;86.30
52769;DHT22;40471;44.534;18.644;2023-07-02T10:06:14;32.40;84.50
52769;DHT22;40471;44.534;18.644;2023-07-02T10:08:39;33.10;83.60
52769;DHT22;40471;44.534;18.644;2023-07-02T10:11:09;34.00;82.00
52769;DHT22;40471;44.534;18.644;2023-07-02T10:13:34;34.20;81.90
52769;DHT22;40471;44.534;18.644;2023-07-02T10:16:01;34.80;80.90
52769;DHT22;40471;44.534;18.644;2023-07-02T10:18:26;34.90;78.20
52769;DHT22;40471;44.534;18.644;2023-07-02T10:20:52;35.20;78.70
52769;DHT22;40471;44.534;18.644;2023-07-02T10:23:17;35.10;77.60
52769;DHT22;40471;44.534;18.644;2023-07-02T10:25:43;35.30;78.80
52769;DHT22;40471;44.534;18.644;2023-07-02T10:30:41;34.90;77.30
52769;DHT22;40471;44.534;18.644;2023-07-02T10:33:13;34.60;76.00
52769;DHT22;40471;44.534;18.644;2023-07-02T10:35:43;34.40;77.00
52769;DHT22;40471;44.534;18.644;2023-07-02T10:38:13;34.00;79.70
52769;DHT22;40471;44.534;18.644;2023-07-02T10:40:41;34.40;78.90
52769;DHT22;40471;44.534;18.644;2023-07-02T10:43:07;34.70;78.70
52769;DHT22;40471;44.534;18.644;2023-07-02T10:45:33;35.30;77.50
52769;DHT22;40471;44.534;18.644;2023-07-02T10:57:09;35.80;72.50
52769;DHT22;40471;44.534;18.644;2023-07-02T10:59:35;35.10;73.90
52769;DHT22;40471;44.534;18.644;2023-07-02T11:02:00;34.80;73.90
52769;DHT22;40471;44.534;18.644;2023-07-02T11:04:32;34.30;75.50
52769;DHT22;40471;44.534;18.644;2023-07-02T11:06:57;33.60;77.00
52769;DHT22;40471;44.534;18.644;2023-07-02T11:09:23;33.30;77.30
52769;DHT22;40471;44.534;18.644;2023-07-02T11:11:50;32.90;78.10
52769;DHT22;40471;44.534;18.644;2023-07-02T11:14:25;32.70;79.10
52769;DHT22;40471;44.534;18.644;2023-07-02T11:16:54;32.50;79.60
52769;DHT22;40471;44.534;18.644;2023-07-02T11:19:19;32.10;79.70
52769;DHT22;40471;44.534;18.644;2023-07-02T11:21:54;32.00;80.70
52769;DHT22;40471;44.534;18.644;2023-07-02T11:24:33;32.10;82.30
52769;DHT22;40471;44.534;18.644;2023-07-02T11:27:00;32.00;81.70
52769;DHT22;40471;44.534;18.644;2023-07-02T11:29:26;32.30;83.50
52769;DHT22;40471;44.534;18.644;2023-07-02T11:31:51;32.00;81.80
52769;DHT22;40471;44.534;18.644;2023-07-02T11:34:18;31.60;82.60
52769;DHT22;40471;44.534;18.644;2023-07-02T11:36:44;31.40;83.10
52769;DHT22;40471;44.534;18.644;2023-07-02T11:39:10;31.40;84.90
52769;DHT22;40471;44.534;18.644;2023-07-02T11:41:36;31.80;85.50
52769;DHT22;40471;44.534;18.644;2023-07-02T11:44:01;32.00;83.50
52769;DHT22;40471;44.534;18.644;2023-07-02T11:46:27;32.40;81.30
52769;DHT22;40471;44.534;18.644;2023-07-02T11:48:53;32.50;81.40
52769;DHT22;40471;44.534;18.644;2023-07-02T11:51:18;32.30;81.20
52769;DHT22;40471;44.534;18.644;2023-07-02T11:53:44;31.90;85.90
52769;DHT22;40471;44.534;18.644;2023-07-02T11:56:09;31.50;87.80
52769;DHT22;40471;44.534;18.644;2023-07-02T11:58:35;30.90;88.80
52769;DHT22;40471;44.534;18.644;2023-07-02T12:01:00;30.60;89.30
52769;DHT22;40471;44.534;18.644;2023-07-02T12:03:26;30.30;90.90
52769;DHT22;40471;44.534;18.644;2023-07-02T12:05:52;30.50;90.50
52769;DHT22;40471;44.534;18.644;2023-07-02T12:08:17;31.00;90.30
52769;DHT22;40471;44.534;18.644;2023-07-02T12:10:43;31.60;87.30
52769;DHT22;40471;44.534;18.644;2023-07-02T12:13:08;31.90;82.00
52769;DHT22;40471;44.534;18.644;2023-07-02T12:15:34;31.70;79.80
52769;DHT22;40471;44.534;18.644;2023-07-02T12:18:00;31.50;82.50
52769;DHT22;40471;44.534;18.644;2023-07-02T12:20:25;31.70;80.40
52769;DHT22;40471;44.534;18.644;2023-07-02T12:22:51;32.10;79.40
52769;DHT22;40471;44.534;18.644;2023-07-02T12:25:16;32.80;78.70
52769;DHT22;40471;44.534;18.644;2023-07-02T12:27:42;33.00;76.80
52769;DHT22;40471;44.534;18.644;2023-07-02T12:30:08;33.10;77.70
52769;DHT22;40471;44.534;18.644;2023-07-02T12:32:34;33.50;77.10
52769;DHT22;40471;44.534;18.644;2023-07-02T12:34:59;33.60;76.20
52769;DHT22;40471;44.534;18.644;2023-07-02T12:37:25;33.80;76.10
52769;DHT22;40471;44.534;18.644;2023-07-02T12:39:51;34.10;76.90
52769;DHT22;40471;44.534;18.644;2023-07-02T12:42:16;33.90;77.60
52769;DHT22;40471;44.534;18.644;2023-07-02T12:44:42;33.60;76.30
52769;DHT22;40471;44.534;18.644;2023-07-02T12:47:08;33.20;78.20
52769;DHT22;40471;44.534;18.644;2023-07-02T12:49:34;33.20;77.60
52769;DHT22;40471;44.534;18.644;2023-07-02T12:51:59;32.90;79.50
52769;DHT22;40471;44.534;18.644;2023-07-02T12:54:25;32.90;80.10
52769;DHT22;40471;44.534;18.644;2023-07-02T12:56:51;33.00;80.40
52769;DHT22;40471;44.534;18.644;2023-07-02T12:59:17;33.00;79.80
52769;DHT22;40471;44.534;18.644;2023-07-02T13:01:44;32.80;81.70
52769;DHT22;40471;44.534;18.644;2023-07-02T13:04:09;33.00;83.10
52769;DHT22;40471;44.534;18.644;2023-07-02T13:06:35;33.00;81.90
52769;DHT22;40471;44.534;18.644;2023-07-02T13:09:05;32.90;81.10
52769;DHT22;40471;44.534;18.644;2023-07-02T13:11:32;32.70;81.40
52769;DHT22;40471;44.534;18.644;2023-07-02T13:13:57;32.40;82.40
52769;DHT22;40471;44.534;18.644;2023-07-02T13:16:23;32.10;82.70
52769;DHT22;40471;44.534;18.644;2023-07-02T13:18:49;31.80;84.10
52769;DHT22;40471;44.534;18.644;2023-07-02T13:21:15;31.50;85.20
52769;DHT22;40471;44.534;18.644;2023-07-02T13:23:40;31.20;86.40
52769;DHT22;40471;44.534;18.644;2023-07-02T13:26:06;31.10;85.70
52769;DHT22;40471;44.534;18.644;2023-07-02T13:28:31;31.10;86.60
52769;DHT22;40471;44.534;18.644;2023-07-02T13:30:57;31.10;84.80
52769;DHT22;40471;44.534;18.644;2023-07-02T13:33:23;31.20;84.50
52769;DHT22;40471;44.534;18.644;2023-07-02T13:35:48;31.30;85.50
52769;DHT22;40471;44.534;18.644;2023-07-02T13:38:14;31.50;85.50
52769;DHT22;40471;44.534;18.644;2023-07-02T13:40:40;31.50;82.50
52769;DHT22;40471;44.534;18.644;2023-07-02T13:43:05;31.60;82.90
52769;DHT22;40471;44.534;18.644;2023-07-02T13:45:31;31.60;83.10
52769;DHT22;40471;44.534;18.644;2023-07-02T13:47:57;31.50;84.80
52769;DHT22;40471;44.534;18.644;2023-07-02T13:50:22;31.70;83.10
52769;DHT22;40471;44.534;18.644;2023-07-02T13:52:48;31.60;82.10
52769;DHT22;40471;44.534;18.644;2023-07-02T13:55:15;31.50;83.40
52769;DHT22;40471;44.534;18.644;2023-07-02T13:57:40;31.70;81.80
52769;DHT22;40471;44.534;18.644;2023-07-02T14:00:06;31.60;82.50
52769;DHT22;40471;44.534;18.644;2023-07-02T14:02:32;31.50;82.70
52769;DHT22;40471;44.534;18.644;2023-07-02T14:04:57;31.30;83.70
52769;DHT22;40471;44.534;18.644;2023-07-02T14:07:23;31.20;82.90
52769;DHT22;40471;44.534;18.644;2023-07-02T14:09:49;31.10;82.60
52769;DHT22;40471;44.534;18.644;2023-07-02T14:12:15;30.90;83.00
52769;DHT22;40471;44.534;18.644;2023-07-02T14:14:40;30.80;84.40
52769;DHT22;40471;44.534;18.644;2023-07-02T14:17:06;30.70;88.30
52769;DHT22;40471;44.534;18.644;2023-07-02T14:19:32;30.60;88.30
52769;DHT22;40471;44.534;18.644;2023-07-02T14:21:58;30.60;93.90
52769;DHT22;40471;44.534;18.644;2023-07-02T14:24:23;30.60;93.70
52769;DHT22;40471;44.534;18.644;2023-07-02T14:26:49;30.40;92.90
52769;DHT22;40471;44.534;18.644;2023-07-02T14:29:14;30.60;94.20
52769;DHT22;40471;44.534;18.644;2023-07-02T14:31:40;30.60;93.10
52769;DHT22;40471;44.534;18.644;2023-07-02T14:34:06;30.60;91.20
52769;DHT22;40471;44.534;18.644;2023-07-02T14:36:31;30.60;91.80
52769;DHT22;40471;44.534;18.644;2023-07-02T14:38:57;30.60;90.40
52769;DHT22;40471;44.534;18.644;2023-07-02T14:41:23;30.70;91.50
52769;DHT22;40471;44.534;18.644;2023-07-02T14:43:48;30.70;91.20
52769;DHT22;40471;44.534;18.644;2023-07-02T14:46:14;30.60;90.50
52769;DHT22;40471;44.534;18.644;2023-07-02T14:48:39;30.40;90.30
52769;DHT22;40471;44.534;18.644;2023-07-02T14:51:06;30.30;91.00
52769;DHT22;40471;44.534;18.644;2023-07-02T14:53:32;30.20;91.00
52769;DHT22;40471;44.534;18.644;2023-07-02T14:55:59;30.00;91.00
52769;DHT22;40471;44.534;18.644;2023-07-02T14:58:26;29.90;92.00
52769;DHT22;40471;44.534;18.644;2023-07-02T15:00:53;29.80;93.50
52769;DHT22;40471;44.534;18.644;2023-07-02T15:03:19;29.90;94.10
52769;DHT22;40471;44.534;18.644;2023-07-02T15:05:46;29.90;93.80
52769;DHT22;40471;44.534;18.644;2023-07-02T15:08:12;30.00;94.10
52769;DHT22;40471;44.534;18.644;2023-07-02T15:10:38;30.20;94.50
52769;DHT22;40471;44.534;18.644;2023-07-02T15:13:04;30.30;93.70
52769;DHT22;40471;44.534;18.644;2023-07-02T15:15:30;30.50;93.40
52769;DHT22;40471;44.534;18.644;2023-07-02T15:17:56;30.50;94.00
52769;DHT22;40471;44.534;18.644;2023-07-02T15:20:21;30.40;93.80
52769;DHT22;40471;44.534;18.644;2023-07-02T15:22:47;30.50;94.40